sensor_id;sensor_type;location;lat;lon;timestamp;noise_LAeq;noise_LA_min;noise_LA_max;noise_LA01;noise_LA95
50333;Laerm;36239;48.132;-1.210;2024-03-02T00:00:53;54.61;36.69;78.31;;
50333;Laerm;36239;48.132;-1.210;2024-03-02T00:03:19;45.13;35.94;76.31;;
50333;Laerm;36239;48.132;-1.210;2024-03-02T00:05:49;40.12;35.59;58.33;;
50333;Laerm;36239;48.132;-1.210;2024-03-02T00:08:18;50.95;35.66;76.99;;
50333;Laerm;36239;48.132;-1.210;2024-03-02T00:10:48;41.35;35.36;61.94;;
50333;Laerm;36239;48.132;-1.210;2024-03-02T00:13:14;43.06;36.20;65.73;;
50333;Laerm;36239;48.132;-1.210;2024-03-02T00:15:47;39.22;35.94;45.69;;
50333;Laerm;36239;48.132;-1.210;2024-03-02T00:18:16;40.46;35.94;56.36;;
50333;Laerm;36239;48.132;-1.210;2024-03-02T00:20:44;50.35;35.94;77.28;;
50333;Laerm;36239;48.132;-1.210;2024-03-02T00:23:10;41.31;34.31;64.33;;
50333;Laerm;36239;48.132;-1.210;2024-03-02T00:25:40;40.64;36.20;57.62;;
50333;Laerm;36239;48.132;-1.210;2024-03-02T00:28:19;49.79;36.20;74.78;;
50333;Laerm;36239;48.132;-1.210;2024-03-02T00:30:59;46.07;35.66;72.27;;
50333;Laerm;36239;48.132;-1.210;2024-03-02T00:33:26;39.82;35.04;51.12;;
50333;Laerm;36239;48.132;-1.210;2024-03-02T00:35:53;51.56;35.66;82.59;;
50333;Laerm;36239;48.132;-1.210;2024-03-02T00:38:19;44.73;36.20;67.89;;
50333;Laerm;36239;48.132;-1.210;2024-03-02T00:40:45;43.40;35.94;66.81;;
50333;Laerm;36239;48.132;-1.210;2024-03-02T00:45:56;53.18;35.94;82.89;;
50333;Laerm;36239;48.132;-1.210;2024-03-02T00:48:23;50.52;35.94;79.88;;
50333;Laerm;36239;48.132;-1.210;2024-03-02T00:50:52;42.41;34.69;65.98;;
50333;Laerm;36239;48.132;-1.210;2024-03-02T00:53:19;50.41;35.04;79.04;;
50333;Laerm;36239;48.132;-1.210;2024-03-02T00:55:49;47.69;36.91;72.91;;
50333;Laerm;36239;48.132;-1.210;2024-03-02T00:58:15;62.49;35.94;87.40;;
50333;Laerm;36239;48.132;-1.210;2024-03-02T01:00:41;45.27;35.86;72.14;;
50333;Laerm;36239;48.132;-1.210;2024-03-02T01:03:07;59.10;36.45;83.53;;
50333;Laerm;36239;48.132;-1.210;2024-03-02T01:05:33;40.95;35.31;59.04;;
50333;Laerm;36239;48.132;-1.210;2024-03-02T01:07:59;54.98;35.04;81.48;;
50333;Laerm;36239;48.132;-1.210;2024-03-02T01:10:25;67.25;36.45;94.70;;
50333;Laerm;36239;48.132;-1.210;2024-03-02T01:12:51;62.83;36.20;91.67;;
50333;Laerm;36239;48.132;-1.210;2024-03-02T01:15:17;60.25;37.88;85.78;;
50333;Laerm;36239;48.132;-1.210;2024-03-02T01:17:43;46.49;38.21;72.27;;
50333;Laerm;36239;48.132;-1.210;2024-03-02T01:20:09;49.01;36.20;74.63;;
50333;Laerm;36239;48.132;-1.210;2024-03-02T01:22:35;44.71;36.69;72.17;;
50333;Laerm;36239;48.132;-1.210;2024-03-02T01:25:01;53.78;37.12;78.53;;
50333;Laerm;36239;48.132;-1.210;2024-03-02T01:27:27;50.58;36.91;81.56;;
50333;Laerm;36239;48.132;-1.210;2024-03-02T01:29:53;44.84;35.94;76.72;;
50333;Laerm;36239;48.132;-1.210;2024-03-02T01:32:20;49.71;35.94;79.40;;
50333;Laerm;36239;48.132;-1.210;2024-03-02T01:34:46;45.50;35.94;71.40;;
50333;Laerm;36239;48.132;-1.210;2024-03-02T01:37:12;49.29;36.91;73.62;;
50333;Laerm;36239;48.132;-1.210;2024-03-02T01:39:38;45.77;36.20;73.39;;
50333;Laerm;36239;48.132;-1.210;2024-03-02T01:42:04;52.39;35.36;82.09;;
50333;Laerm;36239;48.132;-1.210;2024-03-02T01:44:30;40.09;35.36;54.53;;
50333;Laerm;36239;48.132;-1.210;2024-03-02T01:46:56;41.84;35.04;60.68;;
50333;Laerm;36239;48.132;-1.210;2024-03-02T01:49:22;51.58;35.66;82.06;;
50333;Laerm;36239;48.132;-1.210;2024-03-02T01:51:48;61.60;36.69;87.56;;
50333;Laerm;36239;48.132;-1.210;2024-03-02T01:54:14;41.90;34.69;65.97;;
50333;Laerm;36239;48.132;-1.210;2024-03-02T01:56:40;48.60;35.04;76.81;;
50333;Laerm;36239;48.132;-1.210;2024-03-02T01:59:06;40.38;36.45;58.51;;
50333;Laerm;36239;48.132;-1.210;2024-03-02T02:01:32;44.09;36.45;69.25;;
50333;Laerm;36239;48.132;-1.210;2024-03-02T02:03:58;48.33;37.17;69.99;;
50333;Laerm;36239;48.132;-1.210;2024-03-02T02:06:24;47.56;36.45;72.87;;
50333;Laerm;36239;48.132;-1.210;2024-03-02T02:08:51;46.86;36.69;67.09;;
50333;Laerm;36239;48.132;-1.210;2024-03-02T02:11:17;53.06;35.94;79.47;;
50333;Laerm;36239;48.132;-1.210;2024-03-02T02:13:43;43.76;36.45;68.33;;
50333;Laerm;36239;48.132;-1.210;2024-03-02T02:16:09;49.03;36.20;77.51;;
50333;Laerm;36239;48.132;-1.210;2024-03-02T02:18:35;44.22;35.94;69.14;;
50333;Laerm;36239;48.132;-1.210;2024-03-02T02:21:02;49.22;35.94;72.97;;
50333;Laerm;36239;48.132;-1.210;2024-03-02T02:23:28;41.78;33.90;62.76;;
50333;Laerm;36239;48.132;-1.210;2024-03-02T02:25:54;42.36;35.66;66.73;;
50333;Laerm;36239;48.132;-1.210;2024-03-02T02:28:20;54.63;35.66;79.73;;
50333;Laerm;36239;48.132;-1.210;2024-03-02T02:30:46;46.06;35.94;69.16;;
50333;Laerm;36239;48.132;-1.210;2024-03-02T02:33:12;47.20;36.45;73.19;;
50333;Laerm;36239;48.132;-1.210;2024-03-02T02:35:38;46.16;36.91;73.11;;
50333;Laerm;36239;48.132;-1.210;2024-03-02T02:38:04;51.88;35.36;81.05;;
50333;Laerm;36239;48.132;-1.210;2024-03-02T02:40:30;44.76;35.36;66.15;;
50333;Laerm;36239;48.132;-1.210;2024-03-02T02:42:57;43.46;35.04;65.90;;
50333;Laerm;36239;48.132;-1.210;2024-03-02T02:45:23;51.07;35.94;81.38;;
50333;Laerm;36239;48.132;-1.210;2024-03-02T02:47:49;40.02;36.20;56.15;;
50333;Laerm;36239;48.132;-1.210;2024-03-02T02:50:15;49.17;35.01;74.27;;
50333;Laerm;36239;48.132;-1.210;2024-03-02T02:52:42;51.96;35.94;79.80;;
50333;Laerm;36239;48.132;-1.210;2024-03-02T02:55:09;40.47;35.94;57.02;;
50333;Laerm;36239;48.132;-1.210;2024-03-02T02:57:35;58.66;35.36;84.34;;
50333;Laerm;36239;48.132;-1.210;2024-03-02T03:00:04;61.70;35.66;89.95;;
50333;Laerm;36239;48.132;-1.210;2024-03-02T03:02:38;54.36;36.69;79.30;;
50333;Laerm;36239;48.132;-1.210;2024-03-02T03:05:05;60.13;35.94;90.57;;
50333;Laerm;36239;48.132;-1.210;2024-03-02T03:07:32;50.24;35.66;76.45;;
50333;Laerm;36239;48.132;-1.210;2024-03-02T03:09:59;47.13;35.94;75.10;;
50333;Laerm;36239;48.132;-1.210;2024-03-02T03:12:25;53.26;35.66;78.78;;
50333;Laerm;36239;48.132;-1.210;2024-03-02T03:14:51;42.24;35.36;65.73;;
50333;Laerm;36239;48.132;-1.210;2024-03-02T03:17:17;40.11;35.04;54.78;;
50333;Laerm;36239;48.132;-1.210;2024-03-02T03:19:43;39.76;35.66;58.07;;
50333;Laerm;36239;48.132;-1.210;2024-03-02T03:22:09;42.33;35.04;69.89;;
50333;Laerm;36239;48.132;-1.210;2024-03-02T03:24:35;44.49;36.20;72.63;;
50333;Laerm;36239;48.132;-1.210;2024-03-02T03:27:01;55.07;36.45;88.77;;
50333;Laerm;36239;48.132;-1.210;2024-03-02T03:29:27;48.48;36.45;74.55;;
50333;Laerm;36239;48.132;-1.210;2024-03-02T03:31:53;48.94;35.94;74.61;;
50333;Laerm;36239;48.132;-1.210;2024-03-02T03:34:19;50.48;35.94;79.51;;
50333;Laerm;36239;48.132;-1.210;2024-03-02T03:36:45;48.56;35.66;73.33;;
50333;Laerm;36239;48.132;-1.210;2024-03-02T03:39:11;57.78;36.91;85.38;;
50333;Laerm;36239;48.132;-1.210;2024-03-02T03:41:37;46.56;35.04;71.31;;
50333;Laerm;36239;48.132;-1.210;2024-03-02T03:44:03;47.63;34.34;76.63;;
50333;Laerm;36239;48.132;-1.210;2024-03-02T03:46:29;41.26;35.66;67.35;;
50333;Laerm;36239;48.132;-1.210;2024-03-02T03:48:55;48.62;36.20;77.23;;
50333;Laerm;36239;48.132;-1.210;2024-03-02T03:51:22;54.52;36.20;79.68;;
50333;Laerm;36239;48.132;-1.210;2024-03-02T03:53:51;41.91;36.45;60.20;;
50333;Laerm;36239;48.132;-1.210;2024-03-02T03:56:17;40.39;35.36;63.13;;
50333;Laerm;36239;48.132;-1.210;2024-03-02T03:58:43;40.54;35.94;56.19;;
50333;Laerm;36239;48.132;-1.210;2024-03-02T04:01:09;46.24;36.20;74.17;;
50333;Laerm;36239;48.132;-1.210;2024-03-02T04:03:35;39.26;35.36;51.84;;
50333;Laerm;36239;48.132;-1.210;2024-03-02T04:06:01;41.33;35.66;65.20;;
50333;Laerm;36239;48.132;-1.210;2024-03-02T04:08:27;39.91;35.36;58.52;;
50333;Laerm;36239;48.132;-1.210;2024-03-02T04:10:53;40.41;35.66;58.55;;
50333;Laerm;36239;48.132;-1.210;2024-03-02T04:13:19;40.71;35.94;62.08;;
50333;Laerm;36239;48.132;-1.210;2024-03-02T04:15:45;39.30;35.66;46.66;;
50333;Laerm;36239;48.132;-1.210;2024-03-02T04:18:11;40.00;35.36;57.12;;
50333;Laerm;36239;48.132;-1.210;2024-03-02T04:20:37;51.46;36.20;69.30;;
50333;Laerm;36239;48.132;-1.210;2024-03-02T04:23:03;53.92;35.66;82.91;;
50333;Laerm;36239;48.132;-1.210;2024-03-02T04:25:29;54.73;36.20;80.54;;
50333;Laerm;36239;48.132;-1.210;2024-03-02T04:27:55;51.91;35.94;80.03;;
50333;Laerm;36239;48.132;-1.210;2024-03-02T04:30:21;41.92;35.04;67.56;;
50333;Laerm;36239;48.132;-1.210;2024-03-02T04:32:47;43.22;35.66;70.34;;
50333;Laerm;36239;48.132;-1.210;2024-03-02T04:35:14;42.14;35.36;64.48;;
50333;Laerm;36239;48.132;-1.210;2024-03-02T04:37:40;40.11;35.36;59.70;;
50333;Laerm;36239;48.132;-1.210;2024-03-02T04:40:06;40.42;35.01;58.48;;
50333;Laerm;36239;48.132;-1.210;2024-03-02T04:42:36;47.62;37.12;70.11;;
50333;Laerm;36239;48.132;-1.210;2024-03-02T04:45:02;45.14;35.66;70.95;;
50333;Laerm;36239;48.132;-1.210;2024-03-02T04:47:28;44.22;35.04;67.82;;
50333;Laerm;36239;48.132;-1.210;2024-03-02T04:49:54;59.10;32.93;84.35;;
50333;Laerm;36239;48.132;-1.210;2024-03-02T04:52:20;39.96;36.10;54.56;;
50333;Laerm;36239;48.132;-1.210;2024-03-02T04:54:46;47.90;35.04;75.43;;
50333;Laerm;36239;48.132;-1.210;2024-03-02T04:57:31;39.03;35.04;53.38;;
50333;Laerm;36239;48.132;-1.210;2024-03-02T04:59:57;38.85;34.69;42.16;;
50333;Laerm;36239;48.132;-1.210;2024-03-02T05:02:23;39.45;34.69;55.40;;
50333;Laerm;36239;48.132;-1.210;2024-03-02T05:04:49;40.65;35.59;63.40;;
50333;Laerm;36239;48.132;-1.210;2024-03-02T05:07:15;44.77;38.95;67.82;;
50333;Laerm;36239;48.132;-1.210;2024-03-02T05:09:41;41.97;36.45;53.93;;
50333;Laerm;36239;48.132;-1.210;2024-03-02T05:12:08;41.15;35.94;68.87;;
50333;Laerm;36239;48.132;-1.210;2024-03-02T05:14:52;41.10;35.36;61.67;;
50333;Laerm;36239;48.132;-1.210;2024-03-02T05:17:18;39.41;34.31;54.16;;
50333;Laerm;36239;48.132;-1.210;2024-03-02T05:19:44;38.73;34.69;46.15;;
50333;Laerm;36239;48.132;-1.210;2024-03-02T05:22:10;39.59;35.66;57.96;;
50333;Laerm;36239;48.132;-1.210;2024-03-02T05:24:36;39.23;35.04;58.90;;
50333;Laerm;36239;48.132;-1.210;2024-03-02T05:27:02;39.19;35.66;58.08;;
50333;Laerm;36239;48.132;-1.210;2024-03-02T05:29:28;38.94;35.04;42.41;;
50333;Laerm;36239;48.132;-1.210;2024-03-02T05:31:54;38.99;35.66;54.85;;
50333;Laerm;36239;48.132;-1.210;2024-03-02T05:34:20;40.36;35.36;58.36;;
50333;Laerm;36239;48.132;-1.210;2024-03-02T05:36:46;41.90;35.94;59.15;;
50333;Laerm;36239;48.132;-1.210;2024-03-02T05:39:12;41.90;35.36;65.50;;
50333;Laerm;36239;48.132;-1.210;2024-03-02T05:41:38;39.25;34.69;54.93;;
50333;Laerm;36239;48.132;-1.210;2024-03-02T05:44:04;44.39;35.36;73.83;;
50333;Laerm;36239;48.132;-1.210;2024-03-02T05:46:31;39.52;35.04;51.48;;
50333;Laerm;36239;48.132;-1.210;2024-03-02T05:48:58;55.91;35.36;85.56;;
50333;Laerm;36239;48.132;-1.210;2024-03-02T05:51:24;41.39;34.31;62.70;;
50333;Laerm;36239;48.132;-1.210;2024-03-02T05:53:50;39.29;35.36;44.69;;
50333;Laerm;36239;48.132;-1.210;2024-03-02T05:56:16;39.88;35.04;54.51;;
50333;Laerm;36239;48.132;-1.210;2024-03-02T05:58:42;39.72;35.94;52.32;;
50333;Laerm;36239;48.132;-1.210;2024-03-02T06:01:34;41.52;36.91;55.81;;
50333;Laerm;36239;48.132;-1.210;2024-03-02T06:04:00;40.92;36.91;53.71;;
50333;Laerm;36239;48.132;-1.210;2024-03-02T06:06:26;41.05;36.20;59.84;;
50333;Laerm;36239;48.132;-1.210;2024-03-02T06:08:52;40.33;36.20;56.13;;
50333;Laerm;36239;48.132;-1.210;2024-03-02T06:11:21;46.45;33.90;70.69;;
50333;Laerm;36239;48.132;-1.210;2024-03-02T06:13:47;42.14;35.94;61.15;;
50333;Laerm;36239;48.132;-1.210;2024-03-02T06:16:13;45.95;35.94;67.90;;
50333;Laerm;36239;48.132;-1.210;2024-03-02T06:18:39;46.63;36.45;69.16;;
50333;Laerm;36239;48.132;-1.210;2024-03-02T06:21:05;40.65;35.66;59.13;;
50333;Laerm;36239;48.132;-1.210;2024-03-02T06:23:31;39.19;35.94;44.15;;
50333;Laerm;36239;48.132;-1.210;2024-03-02T06:25:58;47.77;36.69;76.53;;
50333;Laerm;36239;48.132;-1.210;2024-03-02T06:28:24;40.36;36.45;56.32;;
50333;Laerm;36239;48.132;-1.210;2024-03-02T06:30:50;39.97;35.94;55.18;;
50333;Laerm;36239;48.132;-1.210;2024-03-02T06:33:16;39.69;35.94;51.82;;
50333;Laerm;36239;48.132;-1.210;2024-03-02T06:35:42;44.72;36.69;69.31;;
50333;Laerm;36239;48.132;-1.210;2024-03-02T06:38:08;53.74;36.20;82.33;;
50333;Laerm;36239;48.132;-1.210;2024-03-02T06:40:34;48.00;36.69;74.26;;
50333;Laerm;36239;48.132;-1.210;2024-03-02T06:43:00;44.43;36.69;69.02;;
50333;Laerm;36239;48.132;-1.210;2024-03-02T06:45:26;48.02;36.20;69.99;;
50333;Laerm;36239;48.132;-1.210;2024-03-02T06:47:52;40.73;36.91;59.75;;
50333;Laerm;36239;48.132;-1.210;2024-03-02T06:50:18;42.26;36.45;62.25;;
50333;Laerm;36239;48.132;-1.210;2024-03-02T06:52:44;46.01;37.32;68.12;;
50333;Laerm;36239;48.132;-1.210;2024-03-02T06:55:11;40.42;36.34;49.22;;
50333;Laerm;36239;48.132;-1.210;2024-03-02T06:57:37;44.47;37.12;60.83;;
50333;Laerm;36239;48.132;-1.210;2024-03-02T07:00:03;41.16;36.91;53.01;;
50333;Laerm;36239;48.132;-1.210;2024-03-02T07:02:31;41.98;37.70;55.83;;
50333;Laerm;36239;48.132;-1.210;2024-03-02T07:04:57;46.36;37.12;76.77;;
50333;Laerm;36239;48.132;-1.210;2024-03-02T07:07:22;54.20;36.69;80.32;;
50333;Laerm;36239;48.132;-1.210;2024-03-02T07:09:48;41.19;36.69;58.58;;
50333;Laerm;36239;48.132;-1.210;2024-03-02T07:12:14;40.30;37.12;48.82;;
50333;Laerm;36239;48.132;-1.210;2024-03-02T07:14:40;42.22;37.52;64.66;;
50333;Laerm;36239;48.132;-1.210;2024-03-02T07:17:25;44.14;36.91;66.79;;
50333;Laerm;36239;48.132;-1.210;2024-03-02T07:19:51;43.42;38.37;50.89;;
50333;Laerm;36239;48.132;-1.210;2024-03-02T07:22:17;44.20;39.34;52.27;;
50333;Laerm;36239;48.132;-1.210;2024-03-02T07:24:44;43.25;38.67;52.26;;
50333;Laerm;36239;48.132;-1.210;2024-03-02T07:27:11;40.40;37.52;49.56;;
50333;Laerm;36239;48.132;-1.210;2024-03-02T07:29:38;39.95;37.32;47.59;;
50333;Laerm;36239;48.132;-1.210;2024-03-02T07:32:04;40.60;37.12;45.01;;
50333;Laerm;36239;48.132;-1.210;2024-03-02T07:34:30;39.93;36.69;45.66;;
50333;Laerm;36239;48.132;-1.210;2024-03-02T07:36:57;40.83;36.91;56.87;;
50333;Laerm;36239;48.132;-1.210;2024-03-02T07:39:23;40.71;36.91;53.14;;
50333;Laerm;36239;48.132;-1.210;2024-03-02T07:41:49;40.41;37.32;50.34;;
50333;Laerm;36239;48.132;-1.210;2024-03-02T07:44:15;40.85;37.32;54.03;;
50333;Laerm;36239;48.132;-1.210;2024-03-02T07:46:41;42.39;37.52;59.39;;
50333;Laerm;36239;48.132;-1.210;2024-03-02T07:49:08;44.98;37.52;63.08;;
50333;Laerm;36239;48.132;-1.210;2024-03-02T07:51:34;41.21;37.70;61.15;;
50333;Laerm;36239;48.132;-1.210;2024-03-02T07:54:00;41.27;37.88;60.87;;
50333;Laerm;36239;48.132;-1.210;2024-03-02T07:56:26;41.22;38.05;56.97;;
50333;Laerm;36239;48.132;-1.210;2024-03-02T07:58:52;41.20;38.05;59.56;;
50333;Laerm;36239;48.132;-1.210;2024-03-02T08:01:18;41.51;37.32;54.21;;
50333;Laerm;36239;48.132;-1.210;2024-03-02T08:03:44;40.51;37.32;47.34;;
50333;Laerm;36239;48.132;-1.210;2024-03-02T08:06:16;42.93;37.87;57.13;;
50333;Laerm;36239;48.132;-1.210;2024-03-02T08:08:42;42.25;37.70;59.96;;
50333;Laerm;36239;48.132;-1.210;2024-03-02T08:11:08;40.91;37.87;52.59;;
50333;Laerm;36239;48.132;-1.210;2024-03-02T08:13:34;41.19;38.05;49.87;;
50333;Laerm;36239;48.132;-1.210;2024-03-02T08:16:00;42.99;36.69;61.10;;
50333;Laerm;36239;48.132;-1.210;2024-03-02T08:18:29;52.49;37.88;69.82;;
50333;Laerm;36239;48.132;-1.210;2024-03-02T08:20:55;44.89;38.05;69.13;;
50333;Laerm;36239;48.132;-1.210;2024-03-02T08:23:21;40.88;37.88;54.33;;
50333;Laerm;36239;48.132;-1.210;2024-03-02T08:25:47;48.71;37.32;76.17;;
50333;Laerm;36239;48.132;-1.210;2024-03-02T08:28:13;41.85;38.37;62.89;;
50333;Laerm;36239;48.132;-1.210;2024-03-02T08:30:39;44.58;39.08;62.18;;
50333;Laerm;36239;48.132;-1.210;2024-03-02T08:33:05;41.43;38.18;57.40;;
50333;Laerm;36239;48.132;-1.210;2024-03-02T08:35:31;42.82;37.52;66.59;;
50333;Laerm;36239;48.132;-1.210;2024-03-02T08:38:02;40.78;37.12;48.37;;
50333;Laerm;36239;48.132;-1.210;2024-03-02T08:40:28;47.46;38.05;71.51;;
50333;Laerm;36239;48.132;-1.210;2024-03-02T08:42:54;45.27;37.88;68.16;;
50333;Laerm;36239;48.132;-1.210;2024-03-02T08:45:20;43.67;37.52;64.53;;
50333;Laerm;36239;48.132;-1.210;2024-03-02T08:47:46;43.43;37.32;64.47;;
50333;Laerm;36239;48.132;-1.210;2024-03-02T08:50:12;41.14;38.05;51.96;;
50333;Laerm;36239;48.132;-1.210;2024-03-02T08:52:38;40.78;37.70;48.61;;
50333;Laerm;36239;48.132;-1.210;2024-03-02T08:55:04;41.18;38.37;46.59;;
50333;Laerm;36239;48.132;-1.210;2024-03-02T08:57:31;41.75;38.81;55.22;;
50333;Laerm;36239;48.132;-1.210;2024-03-02T08:59:57;40.85;37.52;51.75;;
50333;Laerm;36239;48.132;-1.210;2024-03-02T09:02:23;40.83;37.70;51.37;;
50333;Laerm;36239;48.132;-1.210;2024-03-02T09:04:49;51.60;37.88;80.07;;
50333;Laerm;36239;48.132;-1.210;2024-03-02T09:07:15;48.43;37.70;70.90;;
50333;Laerm;36239;48.132;-1.210;2024-03-02T09:09:41;40.58;37.70;58.67;;
50333;Laerm;36239;48.132;-1.210;2024-03-02T09:12:07;47.87;37.87;68.86;;
50333;Laerm;36239;48.132;-1.210;2024-03-02T09:14:33;48.48;37.32;71.21;;
50333;Laerm;36239;48.132;-1.210;2024-03-02T09:17:00;41.13;37.70;49.19;;
50333;Laerm;36239;48.132;-1.210;2024-03-02T09:19:26;43.93;38.95;69.33;;
50333;Laerm;36239;48.132;-1.210;2024-03-02T09:21:52;46.21;38.21;57.45;;
50333;Laerm;36239;48.132;-1.210;2024-03-02T09:24:18;42.00;37.88;63.42;;
50333;Laerm;36239;48.132;-1.210;2024-03-02T09:26:44;41.18;36.91;52.68;;
50333;Laerm;36239;48.132;-1.210;2024-03-02T09:29:10;47.87;37.32;70.76;;
50333;Laerm;36239;48.132;-1.210;2024-03-02T09:31:40;40.51;37.32;50.43;;
50333;Laerm;36239;48.132;-1.210;2024-03-02T09:34:06;41.17;37.52;56.58;;
50333;Laerm;36239;48.132;-1.210;2024-03-02T09:36:32;41.40;37.32;61.92;;
50333;Laerm;36239;48.132;-1.210;2024-03-02T09:38:58;40.67;37.32;50.27;;
50333;Laerm;36239;48.132;-1.210;2024-03-02T09:41:24;44.58;37.88;68.01;;
50333;Laerm;36239;48.132;-1.210;2024-03-02T09:43:51;41.13;37.12;64.69;;
50333;Laerm;36239;48.132;-1.210;2024-03-02T09:46:17;41.70;37.12;59.96;;
50333;Laerm;36239;48.132;-1.210;2024-03-02T09:48:44;41.91;36.91;60.52;;
50333;Laerm;36239;48.132;-1.210;2024-03-02T09:51:10;45.60;37.32;75.66;;
50333;Laerm;36239;48.132;-1.210;2024-03-02T09:53:36;40.58;36.69;51.84;;
50333;Laerm;36239;48.132;-1.210;2024-03-02T09:56:02;40.21;36.45;56.65;;
50333;Laerm;36239;48.132;-1.210;2024-03-02T09:58:29;45.12;36.45;70.74;;
50333;Laerm;36239;48.132;-1.210;2024-03-02T10:00:55;41.71;37.12;54.52;;
50333;Laerm;36239;48.132;-1.210;2024-03-02T10:03:22;40.88;36.45;54.99;;
50333;Laerm;36239;48.132;-1.210;2024-03-02T10:05:49;40.53;37.32;53.49;;
50333;Laerm;36239;48.132;-1.210;2024-03-02T10:08:15;42.97;36.20;56.28;;
50333;Laerm;36239;48.132;-1.210;2024-03-02T10:10:41;41.94;35.94;67.63;;
50333;Laerm;36239;48.132;-1.210;2024-03-02T10:13:12;39.74;35.36;48.81;;
50333;Laerm;36239;48.132;-1.210;2024-03-02T10:15:39;45.28;35.04;71.24;;
50333;Laerm;36239;48.132;-1.210;2024-03-02T10:18:11;40.38;36.69;52.65;;
50333;Laerm;36239;48.132;-1.210;2024-03-02T10:20:37;40.95;37.32;55.47;;
50333;Laerm;36239;48.132;-1.210;2024-03-02T10:23:13;43.21;36.69;66.54;;
50333;Laerm;36239;48.132;-1.210;2024-03-02T10:25:40;41.61;38.21;50.32;;
50333;Laerm;36239;48.132;-1.210;2024-03-02T10:28:06;41.90;38.05;59.35;;
50333;Laerm;36239;48.132;-1.210;2024-03-02T10:30:33;42.88;38.05;63.65;;
50333;Laerm;36239;48.132;-1.210;2024-03-02T10:33:00;48.32;36.45;67.95;;
50333;Laerm;36239;48.132;-1.210;2024-03-02T10:35:26;44.16;35.94;71.60;;
50333;Laerm;36239;48.132;-1.210;2024-03-02T10:37:52;39.75;36.69;52.75;;
50333;Laerm;36239;48.132;-1.210;2024-03-02T10:40:21;40.04;36.20;52.34;;
50333;Laerm;36239;48.132;-1.210;2024-03-02T10:42:47;43.14;35.94;68.39;;
50333;Laerm;36239;48.132;-1.210;2024-03-02T10:45:15;40.78;35.36;55.65;;
50333;Laerm;36239;48.132;-1.210;2024-03-02T10:47:41;40.00;35.66;46.33;;
50333;Laerm;36239;48.132;-1.210;2024-03-02T10:50:08;40.63;35.36;56.31;;
50333;Laerm;36239;48.132;-1.210;2024-03-02T10:52:35;48.09;37.70;67.57;;
50333;Laerm;36239;48.132;-1.210;2024-03-02T10:55:01;40.22;36.20;49.32;;
50333;Laerm;36239;48.132;-1.210;2024-03-02T10:57:27;39.94;36.20;53.37;;
50333;Laerm;36239;48.132;-1.210;2024-03-02T11:00:00;40.58;36.45;54.40;;
50333;Laerm;36239;48.132;-1.210;2024-03-02T11:02:27;40.95;35.94;52.07;;
50333;Laerm;36239;48.132;-1.210;2024-03-02T11:04:55;39.42;35.66;44.80;;
50333;Laerm;36239;48.132;-1.210;2024-03-02T11:07:21;47.77;36.69;71.16;;
50333;Laerm;36239;48.132;-1.210;2024-03-02T11:09:51;39.77;35.04;48.48;;
50333;Laerm;36239;48.132;-1.210;2024-03-02T11:12:22;40.82;36.20;50.24;;
50333;Laerm;36239;48.132;-1.210;2024-03-02T11:14:50;40.40;35.94;45.99;;
50333;Laerm;36239;48.132;-1.210;2024-03-02T11:17:17;40.85;35.94;53.35;;
50333;Laerm;36239;48.132;-1.210;2024-03-02T11:19:44;40.68;35.94;48.83;;
50333;Laerm;36239;48.132;-1.210;2024-03-02T11:22:11;41.12;36.45;55.36;;
50333;Laerm;36239;48.132;-1.210;2024-03-02T11:24:38;39.25;35.04;49.78;;
50333;Laerm;36239;48.132;-1.210;2024-03-02T11:27:06;38.55;33.90;45.83;;
50333;Laerm;36239;48.132;-1.210;2024-03-02T11:34:40;38.95;35.04;43.54;;
50333;Laerm;36239;48.132;-1.210;2024-03-02T11:37:11;40.51;35.04;61.67;;
50333;Laerm;36239;48.132;-1.210;2024-03-02T11:39:37;38.70;35.36;45.51;;
50333;Laerm;36239;48.132;-1.210;2024-03-02T11:42:07;40.04;35.04;57.42;;
50333;Laerm;36239;48.132;-1.210;2024-03-02T11:44:36;40.64;35.36;53.30;;
50333;Laerm;36239;48.132;-1.210;2024-03-02T11:47:07;39.41;34.31;55.46;;
50333;Laerm;36239;48.132;-1.210;2024-03-02T11:49:43;59.04;35.66;84.57;;
50333;Laerm;36239;48.132;-1.210;2024-03-02T11:52:11;58.57;36.91;86.12;;
50333;Laerm;36239;48.132;-1.210;2024-03-02T11:54:38;41.45;35.36;63.61;;
50333;Laerm;36239;48.132;-1.210;2024-03-02T11:57:12;43.45;34.31;63.00;;
50333;Laerm;36239;48.132;-1.210;2024-03-02T11:59:39;39.16;34.69;44.97;;
50333;Laerm;36239;48.132;-1.210;2024-03-02T12:02:06;42.17;35.36;66.23;;
50333;Laerm;36239;48.132;-1.210;2024-03-02T12:04:32;41.16;34.69;62.32;;
50333;Laerm;36239;48.132;-1.210;2024-03-02T12:06:59;39.06;35.04;55.36;;
50333;Laerm;36239;48.132;-1.210;2024-03-02T12:09:26;38.70;34.69;50.21;;
50333;Laerm;36239;48.132;-1.210;2024-03-02T12:12:08;45.60;35.36;61.72;;
50333;Laerm;36239;48.132;-1.210;2024-03-02T12:14:35;39.02;34.69;51.39;;
50333;Laerm;36239;48.132;-1.210;2024-03-02T12:17:01;39.15;34.69;42.93;;
50333;Laerm;36239;48.132;-1.210;2024-03-02T12:19:28;38.30;34.31;41.61;;
50333;Laerm;36239;48.132;-1.210;2024-03-02T12:21:56;38.36;32.93;45.77;;
50333;Laerm;36239;48.132;-1.210;2024-03-02T12:24:22;39.02;34.69;50.03;;
50333;Laerm;36239;48.132;-1.210;2024-03-02T12:26:51;39.39;33.90;49.38;;
50333;Laerm;36239;48.132;-1.210;2024-03-02T12:29:20;38.60;34.31;45.42;;
50333;Laerm;36239;48.132;-1.210;2024-03-02T12:31:50;41.31;33.90;59.84;;
50333;Laerm;36239;48.132;-1.210;2024-03-02T12:34:18;40.62;35.04;54.74;;
50333;Laerm;36239;48.132;-1.210;2024-03-02T12:36:45;48.52;35.36;73.24;;
50333;Laerm;36239;48.132;-1.210;2024-03-02T12:39:14;38.91;33.90;48.16;;
50333;Laerm;36239;48.132;-1.210;2024-03-02T12:41:40;38.91;35.04;54.56;;
50333;Laerm;36239;48.132;-1.210;2024-03-02T12:44:06;39.55;34.69;56.57;;
50333;Laerm;36239;48.132;-1.210;2024-03-02T12:46:32;39.76;35.04;50.75;;
50333;Laerm;36239;48.132;-1.210;2024-03-02T12:49:04;46.32;35.04;67.62;;
50333;Laerm;36239;48.132;-1.210;2024-03-02T12:51:31;44.04;35.36;61.51;;
50333;Laerm;36239;48.132;-1.210;2024-03-02T12:53:57;39.82;34.69;51.33;;
50333;Laerm;36239;48.132;-1.210;2024-03-02T12:56:24;39.65;34.31;45.73;;
50333;Laerm;36239;48.132;-1.210;2024-03-02T12:58:54;41.27;35.04;59.13;;
50333;Laerm;36239;48.132;-1.210;2024-03-02T13:01:20;40.91;34.69;59.17;;
50333;Laerm;36239;48.132;-1.210;2024-03-02T13:03:49;39.68;35.04;45.14;;
50333;Laerm;36239;48.132;-1.210;2024-03-02T13:06:19;45.38;35.04;58.46;;
50333;Laerm;36239;48.132;-1.210;2024-03-02T13:08:45;40.52;34.31;62.85;;
50333;Laerm;36239;48.132;-1.210;2024-03-02T13:11:12;39.68;33.44;55.33;;
50333;Laerm;36239;48.132;-1.210;2024-03-02T13:13:42;39.81;34.31;44.35;;
50333;Laerm;36239;48.132;-1.210;2024-03-02T13:16:08;40.18;34.69;49.48;;
50333;Laerm;36239;48.132;-1.210;2024-03-02T13:18:35;51.63;37.32;71.89;;
50333;Laerm;36239;48.132;-1.210;2024-03-02T13:21:02;62.35;36.91;87.67;;
50333;Laerm;36239;48.132;-1.210;2024-03-02T13:23:28;52.46;35.04;85.16;;
50333;Laerm;36239;48.132;-1.210;2024-03-02T13:25:57;50.79;36.20;71.42;;
50333;Laerm;36239;48.132;-1.210;2024-03-02T13:28:27;41.93;35.36;51.15;;
50333;Laerm;36239;48.132;-1.210;2024-03-02T13:30:53;44.24;36.34;61.45;;
50333;Laerm;36239;48.132;-1.210;2024-03-02T13:33:19;43.95;35.36;67.16;;
50333;Laerm;36239;48.132;-1.210;2024-03-02T13:35:49;43.99;34.31;71.71;;
50333;Laerm;36239;48.132;-1.210;2024-03-02T13:38:18;49.16;33.90;83.51;;